sensor_id;sensor_type;location;lat;lon;timestamp;temperature;humidity
54622;DHT22;40521;53.146;6.556;2022-11-09T00:01:42;11.30;99.90
54622;DHT22;40521;53.146;6.556;2022-11-09T00:04:08;11.30;99.90
54622;DHT22;40521;53.146;6.556;2022-11-09T00:06:34;11.30;99.90
54622;DHT22;40521;53.146;6.556;2022-11-09T00:09:00;11.30;99.90
54622;DHT22;40521;53.146;6.556;2022-11-09T00:11:26;11.30;99.90
54622;DHT22;40521;53.146;6.556;2022-11-09T00:13:51;11.30;99.90
54622;DHT22;40521;53.146;6.556;2022-11-09T00:16:18;11.20;99.90
54622;DHT22;40521;53.146;6.556;2022-11-09T00:18:44;11.30;99.90
54622;DHT22;40521;53.146;6.556;2022-11-09T00:21:16;11.20;99.90
54622;DHT22;40521;53.146;6.556;2022-11-09T00:23:42;11.70;99.90
54622;DHT22;40521;53.146;6.556;2022-11-09T00:26:09;11.30;99.90
54622;DHT22;40521;53.146;6.556;2022-11-09T00:28:35;11.30;99.90
54622;DHT22;40521;53.146;6.556;2022-11-09T00:31:01;11.30;99.90
54622;DHT22;40521;53.146;6.556;2022-11-09T00:33:27;11.30;99.90
54622;DHT22;40521;53.146;6.556;2022-11-09T00:35:53;11.30;99.90
54622;DHT22;40521;53.146;6.556;2022-11-09T00:38:19;11.30;99.90
54622;DHT22;40521;53.146;6.556;2022-11-09T00:40:44;11.20;99.90
54622;DHT22;40521;53.146;6.556;2022-11-09T00:43:10;11.20;99.90
54622;DHT22;40521;53.146;6.556;2022-11-09T00:45:35;11.20;99.90
54622;DHT22;40521;53.146;6.556;2022-11-09T00:48:02;11.20;99.90
54622;DHT22;40521;53.146;6.556;2022-11-09T00:50:28;11.20;99.90
54622;DHT22;40521;53.146;6.556;2022-11-09T00:52:54;11.20;99.90
54622;DHT22;40521;53.146;6.556;2022-11-09T00:55:19;11.20;99.90
54622;DHT22;40521;53.146;6.556;2022-11-09T00:57:49;11.20;99.90
54622;DHT22;40521;53.146;6.556;2022-11-09T01:00:21;11.20;99.90
54622;DHT22;40521;53.146;6.556;2022-11-09T01:02:50;11.10;99.90
54622;DHT22;40521;53.146;6.556;2022-11-09T01:05:16;11.10;99.90
54622;DHT22;40521;53.146;6.556;2022-11-09T01:07:42;11.10;99.90
54622;DHT22;40521;53.146;6.556;2022-11-09T01:10:07;11.00;99.90
54622;DHT22;40521;53.146;6.556;2022-11-09T01:12:33;11.00;99.90
54622;DHT22;40521;53.146;6.556;2022-11-09T01:14:59;11.00;99.90
54622;DHT22;40521;53.146;6.556;2022-11-09T01:17:24;11.00;99.90
54622;DHT22;40521;53.146;6.556;2022-11-09T01:19:50;10.90;99.90
54622;DHT22;40521;53.146;6.556;2022-11-09T01:22:16;10.80;99.90
54622;DHT22;40521;53.146;6.556;2022-11-09T01:24:43;10.80;99.90
54622;DHT22;40521;53.146;6.556;2022-11-09T01:27:08;10.80;99.90
54622;DHT22;40521;53.146;6.556;2022-11-09T01:29:34;10.80;99.90
54622;DHT22;40521;53.146;6.556;2022-11-09T01:32:00;10.80;99.90
54622;DHT22;40521;53.146;6.556;2022-11-09T01:34:26;10.90;99.90
54622;DHT22;40521;53.146;6.556;2022-11-09T01:36:52;10.90;99.90
54622;DHT22;40521;53.146;6.556;2022-11-09T01:39:18;10.90;99.90
54622;DHT22;40521;53.146;6.556;2022-11-09T01:41:44;10.90;99.90
54622;DHT22;40521;53.146;6.556;2022-11-09T01:46:37;11.00;99.90
54622;DHT22;40521;53.146;6.556;2022-11-09T01:49:04;11.10;99.90
54622;DHT22;40521;53.146;6.556;2022-11-09T01:51:37;11.10;99.90
54622;DHT22;40521;53.146;6.556;2022-11-09T01:54:05;11.10;99.90
54622;DHT22;40521;53.146;6.556;2022-11-09T01:56:32;11.20;99.90
54622;DHT22;40521;53.146;6.556;2022-11-09T01:58:59;11.20;99.90
54622;DHT22;40521;53.146;6.556;2022-11-09T02:01:25;11.30;99.90
54622;DHT22;40521;53.146;6.556;2022-11-09T02:03:54;11.30;99.90
54622;DHT22;40521;53.146;6.556;2022-11-09T02:06:21;11.30;99.90
54622;DHT22;40521;53.146;6.556;2022-11-09T02:08:48;11.40;99.90
54622;DHT22;40521;53.146;6.556;2022-11-09T02:11:17;11.40;99.90
54622;DHT22;40521;53.146;6.556;2022-11-09T02:13:45;11.40;99.90
54622;DHT22;40521;53.146;6.556;2022-11-09T02:16:12;11.40;99.90
54622;DHT22;40521;53.146;6.556;2022-11-09T02:18:40;11.40;99.90
54622;DHT22;40521;53.146;6.556;2022-11-09T02:21:08;11.30;99.90
54622;DHT22;40521;53.146;6.556;2022-11-09T02:23:34;11.20;99.90
54622;DHT22;40521;53.146;6.556;2022-11-09T02:26:04;11.10;99.90
54622;DHT22;40521;53.146;6.556;2022-11-09T02:28:31;11.00;99.90
54622;DHT22;40521;53.146;6.556;2022-11-09T02:30:56;11.00;99.90
54622;DHT22;40521;53.146;6.556;2022-11-09T02:33:23;11.00;99.90
54622;DHT22;40521;53.146;6.556;2022-11-09T02:35:48;10.90;99.90
54622;DHT22;40521;53.146;6.556;2022-11-09T02:38:14;10.90;99.90
54622;DHT22;40521;53.146;6.556;2022-11-09T02:40:41;10.90;99.90
54622;DHT22;40521;53.146;6.556;2022-11-09T02:43:07;10.90;99.90
54622;DHT22;40521;53.146;6.556;2022-11-09T02:45:34;10.80;99.90
54622;DHT22;40521;53.146;6.556;2022-11-09T02:47:59;10.80;99.90
54622;DHT22;40521;53.146;6.556;2022-11-09T02:50:25;10.80;99.90
54622;DHT22;40521;53.146;6.556;2022-11-09T02:52:51;10.80;99.90
54622;DHT22;40521;53.146;6.556;2022-11-09T02:55:16;10.70;99.90
54622;DHT22;40521;53.146;6.556;2022-11-09T02:57:42;10.70;99.90
54622;DHT22;40521;53.146;6.556;2022-11-09T03:00:08;10.80;99.90
54622;DHT22;40521;53.146;6.556;2022-11-09T03:02:34;10.70;99.90
54622;DHT22;40521;53.146;6.556;2022-11-09T03:04:59;10.70;99.90
54622;DHT22;40521;53.146;6.556;2022-11-09T03:07:25;10.70;99.90
54622;DHT22;40521;53.146;6.556;2022-11-09T03:09:51;10.80;99.90
54622;DHT22;40521;53.146;6.556;2022-11-09T03:12:18;10.80;99.90
54622;DHT22;40521;53.146;6.556;2022-11-09T03:14:56;10.70;99.90
54622;DHT22;40521;53.146;6.556;2022-11-09T03:17:22;10.70;99.90
54622;DHT22;40521;53.146;6.556;2022-11-09T03:19:48;10.70;99.90
54622;DHT22;40521;53.146;6.556;2022-11-09T03:22:13;10.80;99.90
54622;DHT22;40521;53.146;6.556;2022-11-09T03:24:39;10.80;99.90
54622;DHT22;40521;53.146;6.556;2022-11-09T03:27:04;10.90;99.90
54622;DHT22;40521;53.146;6.556;2022-11-09T03:29:30;10.80;99.90
54622;DHT22;40521;53.146;6.556;2022-11-09T03:31:56;10.80;99.90
54622;DHT22;40521;53.146;6.556;2022-11-09T03:34:21;10.80;99.90
54622;DHT22;40521;53.146;6.556;2022-11-09T03:36:47;10.80;99.90
54622;DHT22;40521;53.146;6.556;2022-11-09T03:39:13;10.80;99.90
54622;DHT22;40521;53.146;6.556;2022-11-09T03:41:38;10.70;99.90
54622;DHT22;40521;53.146;6.556;2022-11-09T03:44:04;10.70;99.90
54622;DHT22;40521;53.146;6.556;2022-11-09T03:46:30;10.60;99.90
54622;DHT22;40521;53.146;6.556;2022-11-09T03:48:56;10.60;99.90
54622;DHT22;40521;53.146;6.556;2022-11-09T03:51:21;10.60;99.90
54622;DHT22;40521;53.146;6.556;2022-11-09T03:53:47;10.60;99.90
54622;DHT22;40521;53.146;6.556;2022-11-09T03:56:12;10.50;99.90
54622;DHT22;40521;53.146;6.556;2022-11-09T03:58:38;10.50;99.90
54622;DHT22;40521;53.146;6.556;2022-11-09T04:01:03;10.50;99.90
54622;DHT22;40521;53.146;6.556;2022-11-09T04:03:29;10.50;99.90
54622;DHT22;40521;53.146;6.556;2022-11-09T04:05:56;10.50;99.90
54622;DHT22;40521;53.146;6.556;2022-11-09T04:08:22;10.50;99.90
54622;DHT22;40521;53.146;6.556;2022-11-09T04:10:48;10.50;99.90
54622;DHT22;40521;53.146;6.556;2022-11-09T04:13:13;10.40;99.90
54622;DHT22;40521;53.146;6.556;2022-11-09T04:15:39;10.40;99.90
54622;DHT22;40521;53.146;6.556;2022-11-09T04:18:04;10.30;99.90
54622;DHT22;40521;53.146;6.556;2022-11-09T04:20:30;10.30;99.90
54622;DHT22;40521;53.146;6.556;2022-11-09T04:23:00;10.30;99.90
54622;DHT22;40521;53.146;6.556;2022-11-09T04:25:26;10.30;99.90
54622;DHT22;40521;53.146;6.556;2022-11-09T04:27:54;10.20;99.90
54622;DHT22;40521;53.146;6.556;2022-11-09T04:30:20;10.20;99.90
54622;DHT22;40521;53.146;6.556;2022-11-09T04:32:45;10.20;99.90
54622;DHT22;40521;53.146;6.556;2022-11-09T04:35:11;10.20;99.90
54622;DHT22;40521;53.146;6.556;2022-11-09T04:37:36;10.20;99.90
54622;DHT22;40521;53.146;6.556;2022-11-09T04:40:02;10.10;99.90
54622;DHT22;40521;53.146;6.556;2022-11-09T04:42:28;10.10;99.90
54622;DHT22;40521;53.146;6.556;2022-11-09T04:44:53;10.20;99.90
54622;DHT22;40521;53.146;6.556;2022-11-09T04:47:19;10.20;99.90
54622;DHT22;40521;53.146;6.556;2022-11-09T04:49:44;10.50;99.90
54622;DHT22;40521;53.146;6.556;2022-11-09T04:52:10;10.30;99.90
54622;DHT22;40521;53.146;6.556;2022-11-09T04:54:35;10.30;99.90
54622;DHT22;40521;53.146;6.556;2022-11-09T04:57:01;10.30;99.90
54622;DHT22;40521;53.146;6.556;2022-11-09T04:59:27;10.40;99.90
54622;DHT22;40521;53.146;6.556;2022-11-09T05:01:52;10.40;99.90
54622;DHT22;40521;53.146;6.556;2022-11-09T05:04:18;10.40;99.90
54622;DHT22;40521;53.146;6.556;2022-11-09T05:06:43;10.50;99.90
54622;DHT22;40521;53.146;6.556;2022-11-09T05:09:09;10.50;99.90
54622;DHT22;40521;53.146;6.556;2022-11-09T05:11:35;10.50;99.90
54622;DHT22;40521;53.146;6.556;2022-11-09T05:14:00;10.50;99.90
54622;DHT22;40521;53.146;6.556;2022-11-09T05:16:28;11.10;99.90
54622;DHT22;40521;53.146;6.556;2022-11-09T05:18:54;10.50;99.90
54622;DHT22;40521;53.146;6.556;2022-11-09T05:21:20;10.50;99.90
54622;DHT22;40521;53.146;6.556;2022-11-09T05:23:45;10.50;99.90
54622;DHT22;40521;53.146;6.556;2022-11-09T05:26:27;10.50;99.90
54622;DHT22;40521;53.146;6.556;2022-11-09T05:28:53;10.60;99.90
54622;DHT22;40521;53.146;6.556;2022-11-09T05:31:19;10.50;99.90
54622;DHT22;40521;53.146;6.556;2022-11-09T05:33:47;10.50;99.90
54622;DHT22;40521;53.146;6.556;2022-11-09T05:36:12;10.50;99.90
54622;DHT22;40521;53.146;6.556;2022-11-09T05:38:38;10.40;99.90
54622;DHT22;40521;53.146;6.556;2022-11-09T05:41:03;10.40;99.90
54622;DHT22;40521;53.146;6.556;2022-11-09T05:43:29;10.40;99.90
54622;DHT22;40521;53.146;6.556;2022-11-09T05:45:54;10.50;99.90
54622;DHT22;40521;53.146;6.556;2022-11-09T05:48:20;10.60;99.90
54622;DHT22;40521;53.146;6.556;2022-11-09T05:50:46;10.60;99.90
54622;DHT22;40521;53.146;6.556;2022-11-09T05:53:12;10.60;99.90
54622;DHT22;40521;53.146;6.556;2022-11-09T05:55:38;10.50;99.90
54622;DHT22;40521;53.146;6.556;2022-11-09T05:58:04;10.50;99.90
54622;DHT22;40521;53.146;6.556;2022-11-09T06:00:30;10.50;99.90
54622;DHT22;40521;53.146;6.556;2022-11-09T06:03:02;9.70;99.90
54622;DHT22;40521;53.146;6.556;2022-11-09T06:05:28;10.50;99.90
54622;DHT22;40521;53.146;6.556;2022-11-09T06:07:54;10.50;99.90
54622;DHT22;40521;53.146;6.556;2022-11-09T06:10:19;10.50;99.90
54622;DHT22;40521;53.146;6.556;2022-11-09T06:12:49;10.50;99.90
54622;DHT22;40521;53.146;6.556;2022-11-09T06:15:14;10.50;99.90
54622;DHT22;40521;53.146;6.556;2022-11-09T06:17:40;10.40;99.90
54622;DHT22;40521;53.146;6.556;2022-11-09T06:20:06;10.50;99.90
54622;DHT22;40521;53.146;6.556;2022-11-09T06:22:31;10.40;99.90
54622;DHT22;40521;53.146;6.556;2022-11-09T06:24:57;10.40;99.90
54622;DHT22;40521;53.146;6.556;2022-11-09T06:27:23;10.60;99.90
54622;DHT22;40521;53.146;6.556;2022-11-09T06:29:48;10.30;99.90
54622;DHT22;40521;53.146;6.556;2022-11-09T06:32:14;10.40;99.90
54622;DHT22;40521;53.146;6.556;2022-11-09T06:34:39;9.80;99.90
54622;DHT22;40521;53.146;6.556;2022-11-09T06:37:06;10.20;99.90
54622;DHT22;40521;53.146;6.556;2022-11-09T06:39:32;10.30;99.90
54622;DHT22;40521;53.146;6.556;2022-11-09T06:41:58;10.20;99.90
54622;DHT22;40521;53.146;6.556;2022-11-09T06:44:23;10.10;99.90
54622;DHT22;40521;53.146;6.556;2022-11-09T06:46:49;10.10;99.90
54622;DHT22;40521;53.146;6.556;2022-11-09T06:49:14;10.00;99.90
54622;DHT22;40521;53.146;6.556;2022-11-09T06:51:40;10.10;99.90
54622;DHT22;40521;53.146;6.556;2022-11-09T06:54:06;10.10;99.90
54622;DHT22;40521;53.146;6.556;2022-11-09T06:56:31;10.10;99.90
54622;DHT22;40521;53.146;6.556;2022-11-09T06:58:57;10.10;99.90
54622;DHT22;40521;53.146;6.556;2022-11-09T07:01:24;10.20;99.90
54622;DHT22;40521;53.146;6.556;2022-11-09T07:03:51;10.30;99.90
54622;DHT22;40521;53.146;6.556;2022-11-09T07:06:16;10.20;99.90
54622;DHT22;40521;53.146;6.556;2022-11-09T07:08:42;10.10;99.90
54622;DHT22;40521;53.146;6.556;2022-11-09T07:11:09;10.10;99.90
54622;DHT22;40521;53.146;6.556;2022-11-09T07:13:36;10.10;99.90
54622;DHT22;40521;53.146;6.556;2022-11-09T07:16:01;10.20;99.90
54622;DHT22;40521;53.146;6.556;2022-11-09T07:18:27;10.10;99.90
54622;DHT22;40521;53.146;6.556;2022-11-09T07:20:53;10.10;99.90
54622;DHT22;40521;53.146;6.556;2022-11-09T07:23:21;10.20;99.90
54622;DHT22;40521;53.146;6.556;2022-11-09T07:25:47;10.20;99.90
54622;DHT22;40521;53.146;6.556;2022-11-09T07:28:13;10.20;99.90
54622;DHT22;40521;53.146;6.556;2022-11-09T07:30:39;10.20;99.90
54622;DHT22;40521;53.146;6.556;2022-11-09T07:33:14;10.20;99.90
54622;DHT22;40521;53.146;6.556;2022-11-09T07:35:42;10.20;99.90
54622;DHT22;40521;53.146;6.556;2022-11-09T07:38:08;10.20;99.90
54622;DHT22;40521;53.146;6.556;2022-11-09T07:40:34;10.20;99.90
54622;DHT22;40521;53.146;6.556;2022-11-09T07:43:00;10.30;99.90
54622;DHT22;40521;53.146;6.556;2022-11-09T07:45:26;10.20;99.90
54622;DHT22;40521;53.146;6.556;2022-11-09T07:47:56;10.20;99.90
54622;DHT22;40521;53.146;6.556;2022-11-09T07:50:22;10.30;99.90
54622;DHT22;40521;53.146;6.556;2022-11-09T07:52:48;10.30;99.90
54622;DHT22;40521;53.146;6.556;2022-11-09T07:55:14;10.30;99.90
54622;DHT22;40521;53.146;6.556;2022-11-09T07:57:39;10.30;99.90
54622;DHT22;40521;53.146;6.556;2022-11-09T08:00:05;10.40;99.90
54622;DHT22;40521;53.146;6.556;2022-11-09T08:02:31;10.40;99.90
54622;DHT22;40521;53.146;6.556;2022-11-09T08:04:56;10.40;99.90
54622;DHT22;40521;53.146;6.556;2022-11-09T08:07:22;10.50;99.90
54622;DHT22;40521;53.146;6.556;2022-11-09T08:09:48;10.50;99.90
54622;DHT22;40521;53.146;6.556;2022-11-09T08:12:13;10.10;99.90
54622;DHT22;40521;53.146;6.556;2022-11-09T08:14:39;10.60;99.90
54622;DHT22;40521;53.146;6.556;2022-11-09T08:17:05;10.70;99.90
54622;DHT22;40521;53.146;6.556;2022-11-09T08:19:30;9.70;99.90
54622;DHT22;40521;53.146;6.556;2022-11-09T08:21:56;10.70;99.90
54622;DHT22;40521;53.146;6.556;2022-11-09T08:24:22;10.80;99.90
54622;DHT22;40521;53.146;6.556;2022-11-09T08:26:48;10.80;99.90
54622;DHT22;40521;53.146;6.556;2022-11-09T08:29:13;10.80;99.90
54622;DHT22;40521;53.146;6.556;2022-11-09T08:31:40;10.80;99.90
54622;DHT22;40521;53.146;6.556;2022-11-09T08:34:09;9.40;99.90
54622;DHT22;40521;53.146;6.556;2022-11-09T08:36:37;11.00;99.90
54622;DHT22;40521;53.146;6.556;2022-11-09T08:39:02;10.90;99.90
54622;DHT22;40521;53.146;6.556;2022-11-09T08:41:28;11.00;99.90
54622;DHT22;40521;53.146;6.556;2022-11-09T08:43:54;11.10;99.90
54622;DHT22;40521;53.146;6.556;2022-11-09T08:46:19;11.10;99.90
54622;DHT22;40521;53.146;6.556;2022-11-09T08:48:45;11.20;99.90
54622;DHT22;40521;53.146;6.556;2022-11-09T08:51:11;11.20;99.90
54622;DHT22;40521;53.146;6.556;2022-11-09T08:53:37;11.20;99.90
54622;DHT22;40521;53.146;6.556;2022-11-09T08:56:04;11.30;99.90
54622;DHT22;40521;53.146;6.556;2022-11-09T08:58:30;11.30;99.90
54622;DHT22;40521;53.146;6.556;2022-11-09T09:00:56;11.30;99.90
54622;DHT22;40521;53.146;6.556;2022-11-09T09:03:21;11.30;99.90
54622;DHT22;40521;53.146;6.556;2022-11-09T09:05:47;11.40;99.90
54622;DHT22;40521;53.146;6.556;2022-11-09T09:08:12;11.40;99.90
54622;DHT22;40521;53.146;6.556;2022-11-09T09:10:40;10.00;99.90
54622;DHT22;40521;53.146;6.556;2022-11-09T09:13:06;11.70;99.90
54622;DHT22;40521;53.146;6.556;2022-11-09T09:15:31;11.50;99.90
54622;DHT22;40521;53.146;6.556;2022-11-09T09:18:03;11.70;99.90
54622;DHT22;40521;53.146;6.556;2022-11-09T09:20:29;11.60;99.90
54622;DHT22;40521;53.146;6.556;2022-11-09T09:22:58;11.80;99.90
54622;DHT22;40521;53.146;6.556;2022-11-09T09:25:24;11.60;99.90
54622;DHT22;40521;53.146;6.556;2022-11-09T09:27:53;11.70;99.90
54622;DHT22;40521;53.146;6.556;2022-11-09T09:30:19;11.70;99.90
54622;DHT22;40521;53.146;6.556;2022-11-09T09:32:44;11.70;99.90
54622;DHT22;40521;53.146;6.556;2022-11-09T09:35:10;11.70;99.90
54622;DHT22;40521;53.146;6.556;2022-11-09T09:37:36;11.80;99.90
54622;DHT22;40521;53.146;6.556;2022-11-09T09:40:01;11.90;99.90
54622;DHT22;40521;53.146;6.556;2022-11-09T09:42:39;11.90;99.90
54622;DHT22;40521;53.146;6.556;2022-11-09T09:45:28;11.90;99.90
54622;DHT22;40521;53.146;6.556;2022-11-09T09:47:58;12.00;99.90
54622;DHT22;40521;53.146;6.556;2022-11-09T09:50:26;12.00;99.90
54622;DHT22;40521;53.146;6.556;2022-11-09T09:55:37;12.10;99.90
54622;DHT22;40521;53.146;6.556;2022-11-09T09:58:09;12.30;99.90
54622;DHT22;40521;53.146;6.556;2022-11-09T10:00:35;12.20;99.90
54622;DHT22;40521;53.146;6.556;2022-11-09T10:03:03;12.30;99.90
54622;DHT22;40521;53.146;6.556;2022-11-09T10:05:36;12.40;99.90
54622;DHT22;40521;53.146;6.556;2022-11-09T10:11:11;11.40;99.90
54622;DHT22;40521;53.146;6.556;2022-11-09T10:26:03;12.80;99.90
54622;DHT22;40521;53.146;6.556;2022-11-09T10:28:29;12.80;99.90
54622;DHT22;40521;53.146;6.556;2022-11-09T10:30:55;12.40;99.90
54622;DHT22;40521;53.146;6.556;2022-11-09T10:33:23;12.80;99.90
54622;DHT22;40521;53.146;6.556;2022-11-09T10:38:22;12.80;99.90
54622;DHT22;40521;53.146;6.556;2022-11-09T10:40:57;12.80;99.90
54622;DHT22;40521;53.146;6.556;2022-11-09T10:43:25;12.90;99.90
54622;DHT22;40521;53.146;6.556;2022-11-09T10:46:04;12.90;99.90
54622;DHT22;40521;53.146;6.556;2022-11-09T10:48:37;13.50;99.90
54622;DHT22;40521;53.146;6.556;2022-11-09T10:51:03;12.90;99.90
54622;DHT22;40521;53.146;6.556;2022-11-09T10:53:29;12.90;99.90
54622;DHT22;40521;53.146;6.556;2022-11-09T10:56:04;12.90;99.90
54622;DHT22;40521;53.146;6.556;2022-11-09T10:58:31;12.90;99.90
54622;DHT22;40521;53.146;6.556;2022-11-09T11:01:05;12.90;99.90
54622;DHT22;40521;53.146;6.556;2022-11-09T11:03:36;12.90;99.90
54622;DHT22;40521;53.146;6.556;2022-11-09T11:08:39;13.10;99.90
54622;DHT22;40521;53.146;6.556;2022-11-09T11:13:50;13.30;99.90
54622;DHT22;40521;53.146;6.556;2022-11-09T11:18:47;13.30;99.90
54622;DHT22;40521;53.146;6.556;2022-11-09T11:21:17;13.30;99.90
54622;DHT22;40521;53.146;6.556;2022-11-09T11:23:43;13.30;99.90
54622;DHT22;40521;53.146;6.556;2022-11-09T11:26:14;13.30;99.90
54622;DHT22;40521;53.146;6.556;2022-11-09T11:28:46;13.20;99.90
54622;DHT22;40521;53.146;6.556;2022-11-09T11:31:17;13.30;99.90
54622;DHT22;40521;53.146;6.556;2022-11-09T11:33:42;13.20;99.90
54622;DHT22;40521;53.146;6.556;2022-11-09T11:44:08;13.10;99.90
54622;DHT22;40521;53.146;6.556;2022-11-09T11:46:45;13.20;99.90
54622;DHT22;40521;53.146;6.556;2022-11-09T11:55:03;13.10;99.90
54622;DHT22;40521;53.146;6.556;2022-11-09T11:57:38;13.10;99.90
54622;DHT22;40521;53.146;6.556;2022-11-09T12:05:24;13.20;99.90
54622;DHT22;40521;53.146;6.556;2022-11-09T12:07:59;13.20;99.90
54622;DHT22;40521;53.146;6.556;2022-11-09T12:13:51;13.20;99.90
54622;DHT22;40521;53.146;6.556;2022-11-09T12:16:17;13.10;99.90
54622;DHT22;40521;53.146;6.556;2022-11-09T12:18:52;13.00;99.90
54622;DHT22;40521;53.146;6.556;2022-11-09T12:21:22;13.00;99.90
54622;DHT22;40521;53.146;6.556;2022-11-09T12:26:53;13.00;99.90
54622;DHT22;40521;53.146;6.556;2022-11-09T12:29:21;13.00;99.90
54622;DHT22;40521;53.146;6.556;2022-11-09T12:37:02;13.20;99.90
54622;DHT22;40521;53.146;6.556;2022-11-09T12:42:03;13.30;99.90
54622;DHT22;40521;53.146;6.556;2022-11-09T12:44:38;13.30;99.90
54622;DHT22;40521;53.146;6.556;2022-11-09T12:47:09;13.40;99.90
54622;DHT22;40521;53.146;6.556;2022-11-09T12:49:41;13.50;99.90
54622;DHT22;40521;53.146;6.556;2022-11-09T12:52:11;13.50;99.90
54622;DHT22;40521;53.146;6.556;2022-11-09T12:54:38;13.50;99.90
54622;DHT22;40521;53.146;6.556;2022-11-09T12:57:23;12.90;99.90
54622;DHT22;40521;53.146;6.556;2022-11-09T12:59:50;13.40;99.90
54622;DHT22;40521;53.146;6.556;2022-11-09T13:02:19;13.30;99.90
54622;DHT22;40521;53.146;6.556;2022-11-09T13:04:56;12.40;99.90
54622;DHT22;40521;53.146;6.556;2022-11-09T13:07:42;13.10;99.90
54622;DHT22;40521;53.146;6.556;2022-11-09T13:10:21;13.00;99.90
54622;DHT22;40521;53.146;6.556;2022-11-09T13:12:48;12.90;99.90
54622;DHT22;40521;53.146;6.556;2022-11-09T13:15:21;12.70;99.90
54622;DHT22;40521;53.146;6.556;2022-11-09T13:23:01;12.60;99.90
54622;DHT22;40521;53.146;6.556;2022-11-09T13:30:56;12.60;99.90
54622;DHT22;40521;53.146;6.556;2022-11-09T13:33:25;11.30;99.90
54622;DHT22;40521;53.146;6.556;2022-11-09T13:38:20;12.60;99.90
54622;DHT22;40521;53.146;6.556;2022-11-09T13:40:50;12.60;99.90
54622;DHT22;40521;53.146;6.556;2022-11-09T13:43:17;12.70;99.90
54622;DHT22;40521;53.146;6.556;2022-11-09T13:48:22;12.90;99.90
54622;DHT22;40521;53.146;6.556;2022-11-09T13:50:55;12.90;99.90
54622;DHT22;40521;53.146;6.556;2022-11-09T13:56:22;13.10;99.90
54622;DHT22;40521;53.146;6.556;2022-11-09T13:58:48;13.10;99.90
54622;DHT22;40521;53.146;6.556;2022-11-09T14:01:28;13.10;99.90
54622;DHT22;40521;53.146;6.556;2022-11-09T14:03:54;13.00;99.90
54622;DHT22;40521;53.146;6.556;2022-11-09T14:06:20;13.00;99.90
54622;DHT22;40521;53.146;6.556;2022-11-09T14:08:46;13.00;99.90
54622;DHT22;40521;53.146;6.556;2022-11-09T14:11:16;12.90;99.90
54622;DHT22;40521;53.146;6.556;2022-11-09T14:13:54;12.80;99.90
54622;DHT22;40521;53.146;6.556;2022-11-09T14:19:11;12.80;99.90
54622;DHT22;40521;53.146;6.556;2022-11-09T14:24:14;12.70;99.90
54622;DHT22;40521;53.146;6.556;2022-11-09T14:26:57;12.70;99.90
54622;DHT22;40521;53.146;6.556;2022-11-09T14:29:23;12.50;99.90
54622;DHT22;40521;53.146;6.556;2022-11-09T14:31:49;12.50;99.90
54622;DHT22;40521;53.146;6.556;2022-11-09T14:34:15;12.40;99.90
54622;DHT22;40521;53.146;6.556;2022-11-09T14:36:41;12.40;99.90
54622;DHT22;40521;53.146;6.556;2022-11-09T14:39:18;12.50;99.90
54622;DHT22;40521;53.146;6.556;2022-11-09T14:42:00;12.40;99.90
54622;DHT22;40521;53.146;6.556;2022-11-09T14:44:29;12.20;99.90
54622;DHT22;40521;53.146;6.556;2022-11-09T14:47:00;12.00;99.90
54622;DHT22;40521;53.146;6.556;2022-11-09T14:49:26;12.00;99.90
54622;DHT22;40521;53.146;6.556;2022-11-09T14:51:55;11.90;99.90
54622;DHT22;40521;53.146;6.556;2022-11-09T14:54:22;11.80;99.90
54622;DHT22;40521;53.146;6.556;2022-11-09T14:56:48;11.90;99.90
54622;DHT22;40521;53.146;6.556;2022-11-09T14:59:25;11.60;99.90
54622;DHT22;40521;53.146;6.556;2022-11-09T15:01:56;11.80;99.90
54622;DHT22;40521;53.146;6.556;2022-11-09T15:04:22;11.50;99.90
54622;DHT22;40521;53.146;6.556;2022-11-09T15:06:48;11.50;99.90
54622;DHT22;40521;53.146;6.556;2022-11-09T15:09:34;11.50;99.90
54622;DHT22;40521;53.146;6.556;2022-11-09T15:12:05;11.40;99.90
54622;DHT22;40521;53.146;6.556;2022-11-09T15:14:37;11.30;99.90
54622;DHT22;40521;53.146;6.556;2022-11-09T15:17:05;12.70;99.90
54622;DHT22;40521;53.146;6.556;2022-11-09T15:19:33;11.20;99.90
54622;DHT22;40521;53.146;6.556;2022-11-09T15:21:59;11.20;99.90
54622;DHT22;40521;53.146;6.556;2022-11-09T15:24:27;11.10;99.90
54622;DHT22;40521;53.146;6.556;2022-11-09T15:26:53;11.10;99.90
54622;DHT22;40521;53.146;6.556;2022-11-09T15:29:28;11.00;99.90
54622;DHT22;40521;53.146;6.556;2022-11-09T15:31:58;11.00;99.90
54622;DHT22;40521;53.146;6.556;2022-11-09T15:34:25;10.90;99.90
54622;DHT22;40521;53.146;6.556;2022-11-09T15:36:52;10.90;99.90
54622;DHT22;40521;53.146;6.556;2022-11-09T15:39:19;11.00;99.90
54622;DHT22;40521;53.146;6.556;2022-11-09T15:41:45;10.80;99.90
54622;DHT22;40521;53.146;6.556;2022-11-09T15:44:11;10.80;99.90
54622;DHT22;40521;53.146;6.556;2022-11-09T15:46:44;10.70;99.90
54622;DHT22;40521;53.146;6.556;2022-11-09T15:49:12;10.70;99.90
54622;DHT22;40521;53.146;6.556;2022-11-09T15:51:38;10.70;99.90
54622;DHT22;40521;53.146;6.556;2022-11-09T15:54:04;10.70;99.90
54622;DHT22;40521;53.146;6.556;2022-11-09T15:56:30;10.70;99.90
54622;DHT22;40521;53.146;6.556;2022-11-09T15:58:55;10.70;99.90
54622;DHT22;40521;53.146;6.556;2022-11-09T16:01:21;10.70;99.90
54622;DHT22;40521;53.146;6.556;2022-11-09T16:03:46;10.70;99.90
54622;DHT22;40521;53.146;6.556;2022-11-09T16:06:13;10.60;99.90
54622;DHT22;40521;53.146;6.556;2022-11-09T16:08:39;10.60;99.90
54622;DHT22;40521;53.146;6.556;2022-11-09T16:11:05;10.50;99.90
54622;DHT22;40521;53.146;6.556;2022-11-09T16:13:32;10.50;99.90
54622;DHT22;40521;53.146;6.556;2022-11-09T16:16:01;10.50;99.90
54622;DHT22;40521;53.146;6.556;2022-11-09T16:18:28;10.50;99.90
54622;DHT22;40521;53.146;6.556;2022-11-09T16:20:54;10.50;99.90
54622;DHT22;40521;53.146;6.556;2022-11-09T16:23:19;10.40;99.90
54622;DHT22;40521;53.146;6.556;2022-11-09T16:25:45;10.40;99.90
54622;DHT22;40521;53.146;6.556;2022-11-09T16:28:11;10.40;99.90
54622;DHT22;40521;53.146;6.556;2022-11-09T16:30:36;10.40;99.90
54622;DHT22;40521;53.146;6.556;2022-11-09T16:33:02;10.40;99.90
54622;DHT22;40521;53.146;6.556;2022-11-09T16:35:28;10.40;99.90
54622;DHT22;40521;53.146;6.556;2022-11-09T16:37:53;10.30;99.90
54622;DHT22;40521;53.146;6.556;2022-11-09T16:40:19;10.30;99.90
54622;DHT22;40521;53.146;6.556;2022-11-09T16:42:45;10.40;99.90
54622;DHT22;40521;53.146;6.556;2022-11-09T16:45:12;10.40;99.90
54622;DHT22;40521;53.146;6.556;2022-11-09T16:47:40;10.40;99.90
54622;DHT22;40521;53.146;6.556;2022-11-09T16:50:07;10.50;99.90
54622;DHT22;40521;53.146;6.556;2022-11-09T16:52:33;10.50;99.90
54622;DHT22;40521;53.146;6.556;2022-11-09T16:54:59;10.50;99.90
54622;DHT22;40521;53.146;6.556;2022-11-09T16:57:24;10.50;99.90
54622;DHT22;40521;53.146;6.556;2022-11-09T16:59:50;10.50;99.90